Jackson County Reynolds Field Jackson US
ICAO: KJXN
IATA: JXN
Category: Medium
Scheduled Services: No

Elevation: 1001 ft
TransAlt. 18000 ft.

Airport Communications:
LANSING APP/DEP:127.3
ATIS:125.725
CTAF:120.7
GND/CLNC DEL:121.9
LANSING RDO:122.2
TWR:120.7
UNICOM:122.95

KJXN Zoom In..

If you have problems with the map follow the link
https://www.worldairports.se/pages/airport.php?
ICAO=KJXN

Runways:

(A) RW 06 length 5349 ft width 150 ft
---- / hdg 56

(B) RW 14 length 4000 ft width 100 ft
---- / hdg 138

(C) RW 24 length 5349 ft width 150 ft
ILS 109.10 / hdg 236

(D) RW 32 length 4000 ft width 100 ft
---- / hdg 318

Location; KJXN
Day. 26 / Time. 00.56 Zulu
* Altimeter: 29.80
* Temperature: 01° c. 33.8°f.
* Wind from: 230° Speed 06 kn.
Dewpoint: -01° c.
Visibility: 7 Statute Miles.
Clouds: Overcast 900 ft.

KJXN 260056Z 23006KT 7SM OVC009 01/M01 A2980 RMK AO2 SNE00B43E52 CIG 006V010 SLP100 P0000 T00061011


Wind From 230°
Speed 06 kn.

 
 
jpsmedia worldairports.se 2020   terms of use